Time;durP1;ratioP1;P1;durP2;ratioP2;P2;SDS_P1;SDS_P2;PMS_P1;PMS_P2;Temp;Humidity;BMP_temperature;BMP_pressure;BME280_temperature;BME280_humidity;BME280_pressure;Samples;Min_cycle;Max_cycle;Signal;HPM_P1;HPM_P2
2023/08/04 00:01:54;;;;;;;3.80;0.30;;;;;;;18.14;83.66;99355.80;180008;1262;43774;-68
2023/08/04 00:05:57;;;;;;;2.00;0.90;;;;;;;18.20;83.67;99354.87;179997;1264;57906;-68
2023/08/04 00:10:01;;;;;;;1.80;0.50;;;;;;;18.22;83.90;99360.14;180024;1262;44744;-69
2023/08/04 00:14:30;;;;;;;1.00;0.30;;;;;;;18.23;84.12;99365.74;179823;1264;45970;-69
2023/08/04 00:18:34;;;;;;;1.50;0.70;;;;;;;18.23;84.17;99372.57;179893;1264;46115;-68
2023/08/04 00:22:39;;;;;;;0.50;0.20;;;;;;;18.23;84.11;99365.37;179704;1263;45901;-68
2023/08/04 00:26:42;;;;;;;4.30;0.70;;;;;;;18.27;84.23;99368.16;179689;1262;60471;-70
2023/08/04 00:30:45;;;;;;;0.40;0.10;;;;;;;18.32;84.02;99370.31;179887;1262;46032;-69
2023/08/04 00:34:48;;;;;;;1.30;0.60;;;;;;;18.37;83.70;99381.55;179987;1264;43672;-69
2023/08/04 00:38:53;;;;;;;1.30;0.50;;;;;;;18.41;83.57;99384.67;179943;1261;45949;-69
2023/08/04 00:42:56;;;;;;;2.40;0.80;;;;;;;18.43;83.25;99372.38;179840;1262;44878;-69
2023/08/04 00:47:02;;;;;;;0.60;0.40;;;;;;;18.44;83.15;99367.23;179880;1264;58946;-68
2023/08/04 00:51:05;;;;;;;0.20;0.10;;;;;;;18.44;83.52;99365.83;179879;1262;45914;-68
2023/08/04 00:55:12;;;;;;;10.70;0.90;;;;;;;18.45;83.78;99378.39;179978;1263;43587;-69
2023/08/04 00:59:15;;;;;;;4.20;1.30;;;;;;;18.48;83.72;99367.69;179800;1262;46105;-69
2023/08/04 01:03:18;;;;;;;0.70;0.50;;;;;;;18.49;83.82;99363.21;179895;1266;43525;-68
2023/08/04 01:07:25;;;;;;;1.10;0.70;;;;;;;18.45;83.95;99365.67;179934;1262;58427;-68
2023/08/04 01:11:39;;;;;;;2.50;0.10;;;;;;;18.37;84.27;99368.05;179784;1263;45956;-69
2023/08/04 01:15:43;;;;;;;1.00;0.10;;;;;;;18.30;84.66;99381.39;179824;1262;43776;-69
2023/08/04 01:19:47;;;;;;;0.70;0.30;;;;;;;18.25;85.11;99379.91;179912;1263;43656;-66
2023/08/04 01:24:20;;;;;;;0.20;0.10;;;;;;;18.24;85.45;99392.36;179850;1264;45543;-68
2023/08/04 01:28:26;;;;;;;1.00;0.20;;;;;;;18.23;85.72;99401.69;179856;1264;58417;-67
2023/08/04 01:32:30;;;;;;;0.70;0.40;;;;;;;18.19;85.80;99409.52;179862;1263;43897;-69
2023/08/04 01:36:34;;;;;;;0.20;0.10;;;;;;;18.18;85.76;99401.85;179802;1266;45983;-68
2023/08/04 01:40:39;;;;;;;0.70;0.40;;;;;;;18.13;86.10;99399.73;179749;1262;46056;-69
2023/08/04 01:44:43;;;;;;;;;;;;;;;18.13;86.31;99392.48;179843;1264;43903;-69
2023/08/04 01:48:46;;;;;;;1.10;0.30;;;;;;;18.14;86.39;99385.60;179838;1263;58531;-68
2023/08/04 01:52:51;;;;;;;1.00;0.20;;;;;;;18.14;86.46;99391.16;179858;1262;43898;-69
2023/08/04 01:57:51;;;;;;;3.00;0.90;;;;;;;18.17;86.42;99392.95;180082;1262;44539;-69
2023/08/04 02:01:54;;;;;;;0.60;0.30;;;;;;;18.16;86.61;99392.48;180003;1264;45919;-69
2023/08/04 02:05:57;;;;;;;2.70;0.60;;;;;;;18.17;86.78;99390.80;180009;1263;46308;-69
2023/08/04 02:10:03;;;;;;;0.70;0.20;;;;;;;18.23;86.88;99388.34;179912;1261;58549;-68
2023/08/04 02:14:12;;;;;;;;;;;;;;;18.30;86.31;99392.20;180215;1262;43561;-69
2023/08/04 02:18:16;;;;;;;2.90;0.30;;;;;;;18.35;86.03;99412.02;179876;1264;45767;-69
2023/08/04 02:22:19;;;;;;;0.30;0.10;;;;;;;18.32;86.66;99410.98;179962;1260;45996;-68
2023/08/04 02:26:23;;;;;;;0.40;0.40;;;;;;;18.27;87.44;99415.95;180110;1262;43522;-70
2023/08/04 02:30:26;;;;;;;1.20;0.60;;;;;;;18.17;87.75;99433.35;179926;1264;58825;-68
2023/08/04 02:34:30;;;;;;;2.00;1.00;;;;;;;18.10;88.81;99441.48;180045;1264;45362;-68
2023/08/04 02:38:33;;;;;;;1.00;0.40;;;;;;;18.04;89.46;99455.41;180203;1260;45931;-68
2023/08/04 02:42:36;;;;;;;3.50;0.70;;;;;;;17.97;90.08;99463.77;180198;1262;44900;-68
2023/08/04 02:46:41;;;;;;;1.50;0.60;;;;;;;17.90;90.63;99461.23;180099;1260;44834;-69
2023/08/04 02:50:44;;;;;;;1.50;0.50;;;;;;;17.88;90.42;99467.44;180197;1260;58415;-68
2023/08/04 02:54:47;;;;;;;2.30;0.60;;;;;;;17.92;90.46;99474.41;180192;1262;44718;-69
2023/08/04 02:58:51;;;;;;;3.50;1.00;;;;;;;17.98;90.17;99465.03;180118;1265;43523;-69
2023/08/04 03:03:00;;;;;;;1.10;0.50;;;;;;;18.03;90.63;99465.79;180066;1260;44602;-68
2023/08/04 03:07:06;;;;;;;1.10;0.20;;;;;;;18.07;90.45;99473.25;179920;1263;44895;-68
2023/08/04 03:12:09;;;;;;;3.20;0.90;;;;;;;18.14;90.41;99485.13;180006;1263;59360;-68
2023/08/04 03:16:13;;;;;;;1.10;0.50;;;;;;;18.31;89.98;99488.62;180204;1260;44990;-69
2023/08/04 03:20:17;;;;;;;1.10;0.40;;;;;;;18.37;89.54;99496.40;180256;1264;46048;-69
2023/08/04 03:24:21;;;;;;;1.00;0.30;;;;;;;18.38;89.35;99495.59;180158;1264;46004;-69
2023/08/04 03:28:27;;;;;;;3.90;0.50;;;;;;;18.36;89.50;99497.23;180002;1264;44982;-63
2023/08/04 03:32:30;;;;;;;2.20;0.60;;;;;;;18.33;90.23;99511.53;179830;1264;58432;-63
2023/08/04 03:36:41;;;;;;;2.50;0.80;;;;;;;18.16;90.81;99516.70;179699;1262;95760;-91
2023/08/04 03:40:46;;;;;;;1.40;0.50;;;;;;;18.12;91.37;99511.21;179315;1260;45933;-91
2023/08/04 03:44:50;;;;;;;0.80;0.20;;;;;;;18.17;91.48;99509.21;179332;1260;46038;-91
2023/08/04 03:48:54;;;;;;;1.50;0.40;;;;;;;18.22;91.42;99522.34;179099;1260;44795;-91
2023/08/04 03:53:01;;;;;;;1.00;0.50;;;;;;;18.28;91.75;99519.08;179357;1261;59846;-91
2023/08/04 04:11:43;;;;;;;0.70;0.30;;;;;;;18.61;91.25;99518.67;152379;1263;44033;-61
2023/08/04 04:15:47;;;;;;;1.00;0.50;;;;;;;18.74;91.18;99518.84;179656;1264;58661;-61
2023/08/04 04:19:50;;;;;;;0.50;0.30;;;;;;;18.87;91.07;99520.78;179666;1263;45121;-61
2023/08/04 04:24:21;;;;;;;7.10;0.70;;;;;;;18.93;90.07;99510.98;180027;1265;46172;-61
2023/08/04 04:28:25;;;;;;;6.50;0.90;;;;;;;18.99;90.57;99515.01;180154;1265;44895;-60
2023/08/04 04:32:28;;;;;;;0.40;0.30;;;;;;;19.04;91.40;99517.57;179491;1265;46034;-61
2023/08/04 04:36:31;;;;;;;1.10;0.80;;;;;;;19.14;91.32;99513.42;179590;1265;58822;-61
2023/08/04 04:40:37;;;;;;;1.50;0.20;;;;;;;19.22;91.27;99514.24;179557;1265;45925;-60
2023/08/04 04:44:42;;;;;;;2.30;1.40;;;;;;;19.24;90.93;99518.58;179720;1265;46068;-61
2023/08/04 04:48:45;;;;;;;1.10;0.30;;;;;;;19.21;90.48;99512.41;179691;1264;44686;-61
2023/08/04 04:52:48;;;;;;;0.80;0.20;;;;;;;19.25;90.31;99510.53;179644;1263;45860;-61
2023/08/04 04:56:51;;;;;;;2.70;0.80;;;;;;;19.31;90.82;99511.73;179618;1264;58750;-61
2023/08/04 05:01:05;;;;;;;0.70;0.40;;;;;;;19.40;90.50;99517.42;179657;1263;45924;-60
2023/08/04 05:05:09;;;;;;;11.00;1.60;;;;;;;19.50;89.75;99526.52;179610;1265;45969;-61
2023/08/04 05:09:13;;;;;;;2.40;0.40;;;;;;;19.57;89.05;99535.02;179478;1265;45960;-61
2023/08/04 05:13:16;;;;;;;0.40;0.20;;;;;;;19.66;89.10;99542.35;179565;1263;46008;-60
2023/08/04 05:17:21;;;;;;;0.60;0.30;;;;;;;19.80;88.83;99540.77;179696;1263;507865;-61
2023/08/04 05:21:24;;;;;;;1.00;0.20;;;;;;;19.95;88.63;99546.50;180092;1264;43626;-60
2023/08/04 05:25:27;;;;;;;0.60;0.20;;;;;;;20.10;88.23;99553.20;179881;1264;45045;-61
2023/08/04 05:29:31;;;;;;;1.50;0.20;;;;;;;20.28;88.14;99560.89;179699;1264;44944;-61
2023/08/04 05:33:37;;;;;;;11.40;1.00;;;;;;;20.47;87.27;99562.77;179527;1265;43731;-61
2023/08/04 05:37:40;;;;;;;0.90;0.50;;;;;;;20.80;87.21;99570.89;179654;1263;58606;-61
2023/08/04 05:41:45;;;;;;;0.10;0.10;;;;;;;21.25;84.59;99576.77;179542;1264;43995;-60
2023/08/04 05:55:00;;;;;;;0.60;0.40;;;;;;;22.27;77.65;99586.51;179781;1263;45908;-92
2023/08/04 06:04:05;;;;;;;1.70;0.60;;;;;;;23.45;73.70;99582.63;179459;1265;45267;-92
2023/08/04 06:12:47;;;;;;;0.80;0.20;;;;;;;24.15;69.20;99585.31;179555;1267;43947;-61
2023/08/04 06:16:51;;;;;;;5.40;0.90;;;;;;;24.55;68.32;99598.52;179458;1265;45897;-60
2023/08/04 06:20:54;;;;;;;1.60;0.40;;;;;;;24.85;67.09;99602.95;179480;1266;58408;-61
2023/08/04 06:24:57;;;;;;;0.50;0.20;;;;;;;24.94;66.07;99599.00;179435;1267;43986;-61
2023/08/04 06:29:40;;;;;;;0.70;0.60;;;;;;;24.83;65.70;99597.12;179280;1265;45977;-61
2023/08/04 06:33:44;;;;;;;1.00;0.50;;;;;;;24.13;67.03;99605.68;179639;1266;44974;-61
2023/08/04 06:37:47;;;;;;;0.70;0.40;;;;;;;23.26;69.93;99603.23;179777;1267;45910;-61
2023/08/04 06:41:51;;;;;;;1.30;0.20;;;;;;;23.27;72.53;99613.21;179857;1266;59715;-61
2023/08/04 06:45:55;;;;;;;0.60;0.10;;;;;;;23.81;70.55;99613.48;179483;1266;43948;-63
2023/08/04 06:49:59;;;;;;;1.60;1.20;;;;;;;23.66;69.35;99619.38;179463;1266;46087;-62
2023/08/04 06:54:07;;;;;;;2.60;0.50;;;;;;;23.78;70.21;99627.36;179432;1267;44189;-62
2023/08/04 06:58:15;;;;;;;3.50;0.90;;;;;;;24.10;69.50;99629.65;179340;1266;45983;-60
2023/08/04 07:02:18;;;;;;;0.30;0.20;;;;;;;24.48;69.82;99624.34;179313;1266;59067;-62
2023/08/04 07:06:30;;;;;;;1.30;0.30;;;;;;;24.26;68.02;99625.48;179403;1264;44933;-62
2023/08/04 07:10:35;;;;;;;1.20;0.30;;;;;;;23.64;70.23;99633.27;179400;1265;45108;-61
2023/08/04 07:14:43;;;;;;;1.60;0.70;;;;;;;23.98;70.80;99629.39;179594;1265;46146;-61
2023/08/04 07:18:49;;;;;;;0.40;0.30;;;;;;;24.37;69.28;99634.89;179777;1265;43927;-62
2023/08/04 07:22:55;;;;;;;1.20;0.50;;;;;;;24.06;69.16;99640.87;179251;1265;58490;-62
2023/08/04 07:26:59;;;;;;;2.10;0.50;;;;;;;24.06;68.15;99639.36;179424;1265;43996;-63
2023/08/04 07:31:06;;;;;;;1.20;0.50;;;;;;;23.93;69.38;99640.14;179365;1269;45931;-62
2023/08/04 07:35:09;;;;;;;1.20;0.60;;;;;;;23.76;69.42;99645.21;179387;1265;45909;-62
2023/08/04 07:39:12;;;;;;;1.00;0.30;;;;;;;23.73;70.47;99648.13;179462;1266;45026;-62
2023/08/04 07:43:42;;;;;;;0.40;0.40;;;;;;;23.80;70.90;99646.15;179395;1264;57787;-62
2023/08/04 07:47:45;;;;;;;2.30;0.40;;;;;;;24.13;70.27;99649.12;179467;1265;43868;-62
2023/08/04 07:51:49;;;;;;;0.60;0.50;;;;;;;24.46;68.14;99648.34;179384;1265;43920;-62
2023/08/04 07:55:58;;;;;;;0.90;0.40;;;;;;;24.88;68.51;99655.66;179662;1265;46001;-62
2023/08/04 08:00:03;;;;;;;0.30;0.20;;;;;;;25.32;66.20;99651.02;179686;1264;45941;-62
2023/08/04 08:04:06;;;;;;;1.40;0.50;;;;;;;25.51;65.42;99654.28;179680;1264;58741;-63
2023/08/04 08:08:10;;;;;;;3.20;0.70;;;;;;;25.57;64.51;99653.45;179506;1264;43551;-63
2023/08/04 08:12:13;;;;;;;0.40;0.30;;;;;;;25.49;63.67;99659.90;179384;1265;45913;-63
2023/08/04 08:16:17;;;;;;;1.70;0.30;;;;;;;25.50;63.95;99664.77;179380;1265;43541;-62
2023/08/04 08:20:23;;;;;;;36.30;5.70;;;;;;;25.58;63.05;99668.60;179463;1265;45963;-62
2023/08/04 08:24:26;;;;;;;7.60;1.00;;;;;;;25.66;62.77;99667.45;179486;1264;58585;-62
2023/08/04 08:28:31;;;;;;;19.30;2.40;;;;;;;25.71;62.29;99659.98;179315;1264;45197;-62
2023/08/04 08:32:45;;;;;;;4.30;0.70;;;;;;;25.60;62.68;99661.13;179491;1264;45117;-63
2023/08/04 08:36:49;;;;;;;0.20;0.20;;;;;;;25.85;62.71;99662.33;179490;1265;45980;-62
2023/08/04 08:40:53;;;;;;;2.70;0.20;;;;;;;26.03;61.82;99661.45;179436;1269;43837;-63
2023/08/04 08:44:56;;;;;;;0.30;0.10;;;;;;;26.16;61.34;99656.77;179522;1263;57325;-63
2023/08/04 08:49:02;;;;;;;0.80;0.40;;;;;;;26.34;61.41;99653.92;179471;1265;46120;-63
2023/08/04 08:53:37;;;;;;;1.80;0.10;;;;;;;26.46;60.66;99655.70;179338;1265;45875;-63
2023/08/04 08:57:41;;;;;;;2.00;1.10;;;;;;;25.75;60.14;99656.70;179466;1265;45151;-62
2023/08/04 09:01:47;;;;;;;1.70;0.80;;;;;;;25.28;61.88;99671.73;179432;1265;45963;-58
2023/08/04 09:05:51;;;;;;;0.30;0.20;;;;;;;25.29;62.23;99670.46;179644;1269;59888;-60
2023/08/04 09:09:55;;;;;;;1.00;0.40;;;;;;;25.44;61.38;99670.40;179425;1265;43787;-61
2023/08/04 09:14:01;;;;;;;0.80;0.50;;;;;;;25.70;62.60;99669.44;179477;1265;46121;-61
2023/08/04 09:18:07;;;;;;;0.80;0.20;;;;;;;26.05;61.35;99672.34;179671;1264;45191;-61
2023/08/04 09:22:12;;;;;;;0.40;0.30;;;;;;;26.30;58.86;99669.44;179644;1264;43736;-60
2023/08/04 09:26:20;;;;;;;2.70;0.50;;;;;;;26.14;59.57;99672.75;179426;1265;58444;-60
2023/08/04 09:30:24;;;;;;;8.40;1.40;;;;;;;25.76;60.29;99675.05;179540;1265;46018;-59
2023/08/04 09:34:28;;;;;;;3.00;0.80;;;;;;;25.39;61.06;99679.95;179576;1264;43646;-61
2023/08/04 09:39:12;;;;;;;6.10;1.10;;;;;;;24.91;61.86;99684.02;179526;1265;43568;-60
2023/08/04 09:43:47;;;;;;;0.90;0.20;;;;;;;24.79;62.95;99688.54;179522;1265;45994;-60
2023/08/04 09:47:53;;;;;;;1.60;0.80;;;;;;;25.08;63.19;99697.30;179632;1265;59790;-59
2023/08/04 09:51:59;;;;;;;0.70;0.20;;;;;;;25.28;61.65;99702.52;179840;1265;44556;-59
2023/08/04 09:56:17;;;;;;;2.10;0.40;;;;;;;25.57;61.68;99699.22;179896;1265;43536;-59
2023/08/04 10:00:22;;;;;;;2.20;0.40;;;;;;;25.86;61.49;99687.95;179936;1265;43592;-60
2023/08/04 10:04:30;;;;;;;0.70;0.30;;;;;;;25.65;60.36;99686.11;179797;1265;45901;-60
2023/08/04 10:08:40;;;;;;;8.20;1.50;;;;;;;25.43;60.95;99685.69;179581;1265;59327;-61
2023/08/04 10:12:46;;;;;;;0.80;0.30;;;;;;;25.50;61.42;99691.11;179654;1265;45966;-60
2023/08/04 10:16:52;;;;;;;5.40;0.80;;;;;;;25.48;60.65;99686.40;179687;1267;44333;-60
2023/08/04 10:21:00;;;;;;;4.50;1.20;;;;;;;25.75;59.98;99683.59;179387;1265;44453;-60
2023/08/04 10:25:16;;;;;;;2.20;0.70;;;;;;;25.79;59.37;99682.68;179412;1265;43564;-60
2023/08/04 10:29:42;;;;;;;3.20;0.70;;;;;;;26.03;58.86;99677.16;179578;1265;58557;-61
2023/08/04 10:34:14;;;;;;;1.60;0.20;;;;;;;26.38;58.11;99685.34;179444;1265;45006;-60
2023/08/04 10:38:19;;;;;;;1.40;0.50;;;;;;;26.70;55.68;99678.08;179672;1265;43637;-60
2023/08/04 10:42:57;;;;;;;0.90;0.40;;;;;;;26.84;55.86;99671.20;179661;1265;43662;-60
2023/08/04 10:47:04;;;;;;;1.10;0.40;;;;;;;27.09;56.04;99682.90;179649;1265;45188;-60
2023/08/04 10:51:08;;;;;;;0.50;0.50;;;;;;;27.12;53.47;99682.78;179836;1264;57248;-60
2023/08/04 10:55:14;;;;;;;0.60;0.40;;;;;;;27.12;54.48;99673.55;179820;1265;45517;-60
2023/08/04 10:59:18;;;;;;;12.70;7.10;;;;;;;27.20;53.95;99682.20;179720;1265;44661;-60
2023/08/04 11:03:33;;;;;;;2.10;0.40;;;;;;;27.22;55.89;99686.48;179778;1265;45301;-60
2023/08/04 11:07:47;;;;;;;1.00;0.40;;;;;;;27.13;54.94;99703.44;179808;1264;45912;-60
2023/08/04 11:12:18;;;;;;;1.80;0.40;;;;;;;26.96;56.79;99705.02;179747;1265;58545;-60
2023/08/04 11:16:25;;;;;;;4.90;1.50;;;;;;;26.81;57.18;99703.90;179840;1265;45888;-60
2023/08/04 11:20:28;;;;;;;3.40;0.60;;;;;;;26.77;56.30;99710.76;179735;1264;44607;-60
2023/08/04 11:24:35;;;;;;;1.00;0.50;;;;;;;26.70;57.87;99709.01;179785;1264;46080;-60
2023/08/04 11:28:39;;;;;;;3.60;0.70;;;;;;;26.70;55.51;99713.54;179797;1264;46145;-62
2023/08/04 11:32:50;;;;;;;0.50;0.50;;;;;;;26.89;58.17;99707.10;179663;1265;57995;-61
2023/08/04 11:36:54;;;;;;;2.40;1.00;;;;;;;26.80;56.55;99693.45;179681;1265;43877;-62
2023/08/04 11:41:04;;;;;;;3.00;0.60;;;;;;;26.86;57.70;99703.09;179713;1265;45989;-62
2023/08/04 11:45:10;;;;;;;0.90;0.80;;;;;;;27.19;58.01;99697.23;179731;1266;44824;-62
2023/08/04 11:49:16;;;;;;;2.70;0.50;;;;;;;27.41;55.13;99703.93;179642;1267;45905;-62
2023/08/04 11:53:19;;;;;;;4.40;0.50;;;;;;;27.35;55.06;99712.26;179977;1265;58674;-62
2023/08/04 11:57:23;;;;;;;0.60;0.60;;;;;;;27.35;55.02;99718.14;180115;1265;43825;-62
2023/08/04 12:01:33;;;;;;;1.20;0.20;;;;;;;27.14;54.47;99720.20;179849;1265;43705;-62
2023/08/04 12:05:40;;;;;;;0.20;0.10;;;;;;;27.05;55.11;99721.05;179691;1264;43675;-63
2023/08/04 12:09:47;;;;;;;0.60;0.30;;;;;;;26.79;56.64;99722.25;179568;1265;43594;-63
2023/08/04 12:13:51;;;;;;;0.60;0.40;;;;;;;26.87;56.78;99713.66;179551;1265;59574;-62
2023/08/04 12:17:54;;;;;;;1.90;0.30;;;;;;;27.15;56.60;99711.65;179545;1264;43645;-63
2023/08/04 12:22:03;;;;;;;1.00;0.30;;;;;;;27.41;54.60;99708.63;179597;1269;44238;-63
2023/08/04 12:26:27;;;;;;;1.70;0.40;;;;;;;27.53;55.46;99705.25;179018;1271;43954;-63
2023/08/04 12:30:30;;;;;;;1.10;0.80;;;;;;;27.66;54.57;99707.06;179097;1270;46005;-63
2023/08/04 12:34:34;;;;;;;5.90;0.70;;;;;;;27.51;53.75;99702.87;179044;1271;58933;-63
2023/08/04 12:38:39;;;;;;;2.60;0.30;;;;;;;27.34;55.15;99695.80;179091;1269;45891;-63
2023/08/04 12:42:42;;;;;;;;;;;;;;;27.33;55.46;99709.83;179373;1265;44986;-63
2023/08/04 12:46:47;;;;;;;1.70;0.50;;;;;;;27.32;54.90;99706.20;179765;1264;45856;-62
2023/08/04 12:50:52;;;;;;;1.30;0.30;;;;;;;27.18;55.39;99712.84;179648;1264;43892;-63
2023/08/04 12:54:56;;;;;;;2.90;0.50;;;;;;;27.37;56.53;99715.89;179413;1265;60222;-69
2023/08/04 12:59:00;;;;;;;1.90;0.60;;;;;;;27.63;55.72;99722.61;179513;1265;46229;-68
2023/08/04 13:03:04;;;;;;;3.20;0.60;;;;;;;27.67;54.80;99729.65;179347;1267;45869;-68
2023/08/04 13:07:08;;;;;;;1.90;0.30;;;;;;;27.56;54.03;99732.00;179367;1264;43663;-67
2023/08/04 13:11:11;;;;;;;4.40;1.50;;;;;;;27.65;55.46;99726.83;179614;1269;44843;-69
2023/08/04 13:15:15;;;;;;;0.50;0.40;;;;;;;27.87;55.13;99731.64;179460;1265;59051;-68
2023/08/04 13:19:18;;;;;;;2.10;0.50;;;;;;;27.85;55.11;99741.84;179534;1264;45973;-63
2023/08/04 13:23:21;;;;;;;1.30;0.40;;;;;;;27.73;55.50;99749.66;179534;1267;44090;-68
2023/08/04 13:27:26;;;;;;;1.70;0.40;;;;;;;27.73;54.61;99749.01;179470;1265;44660;-66
2023/08/04 13:31:30;;;;;;;0.40;0.30;;;;;;;27.66;55.50;99739.52;179355;1265;43634;-64
2023/08/04 13:35:35;;;;;;;0.80;0.40;;;;;;;27.83;55.34;99740.05;179625;1265;59901;-65
2023/08/04 13:39:56;;;;;;;0.80;0.40;;;;;;;27.97;54.46;99738.42;179491;1265;43759;-66
2023/08/04 13:43:59;;;;;;;0.70;0.30;;;;;;;27.96;54.42;99745.69;179463;1265;46069;-67
2023/08/04 13:48:06;;;;;;;0.50;0.50;;;;;;;27.88;54.05;99751.10;179645;1265;45997;-65
2023/08/04 13:52:10;;;;;;;0.60;0.30;;;;;;;27.86;53.12;99757.41;179735;1267;44287;-66
2023/08/04 13:56:13;;;;;;;1.80;0.60;;;;;;;27.86;54.20;99759.29;179501;1264;59844;-66
2023/08/04 14:00:17;;;;;;;3.20;1.30;;;;;;;27.73;54.27;99759.93;179631;1267;45982;-66
2023/08/04 14:04:21;;;;;;;5.40;1.60;;;;;;;27.64;56.53;99765.23;179501;1265;45030;-67
2023/08/04 14:08:25;;;;;;;38.50;8.20;;;;;;;27.55;56.04;99770.56;179409;1265;45940;-66
2023/08/04 14:12:31;;;;;;;0.80;0.50;;;;;;;27.36;55.89;99785.02;179475;1265;45043;-66
2023/08/04 14:16:38;;;;;;;1.90;0.20;;;;;;;27.15;56.02;99788.20;179344;1267;60771;-66
2023/08/04 14:20:42;;;;;;;2.60;1.10;;;;;;;26.91;57.44;99787.13;179185;1267;44715;-66
2023/08/04 14:24:47;;;;;;;1.20;0.40;;;;;;;26.81;59.26;99781.31;179461;1267;44769;-64
2023/08/04 14:28:50;;;;;;;1.30;0.50;;;;;;;26.81;58.89;99789.02;179260;1267;45982;-65
2023/08/04 14:32:54;;;;;;;1.40;0.50;;;;;;;26.81;58.28;99793.38;179460;1266;45997;-66
2023/08/04 14:36:57;;;;;;;1.50;0.20;;;;;;;26.79;59.54;99786.58;179373;1266;58398;-66
2023/08/04 14:41:08;;;;;;;1.60;0.30;;;;;;;26.74;58.97;99792.33;179307;1269;43692;-66
2023/08/04 14:45:12;;;;;;;2.30;0.80;;;;;;;26.68;58.07;99795.48;179911;1264;93810;-87
2023/08/04 14:49:16;;;;;;;4.30;0.40;;;;;;;26.61;59.94;99788.81;180645;1264;44283;-87
2023/08/04 14:53:19;;;;;;;1.00;0.70;;;;;;;26.45;58.98;99783.50;180566;1264;43826;-87
2023/08/04 14:57:23;;;;;;;1.00;0.50;;;;;;;26.33;59.18;99778.17;180530;1264;60188;-87
2023/08/04 15:01:28;;;;;;;0.40;0.40;;;;;;;26.15;58.55;99778.22;180616;1264;44218;-89
2023/08/04 15:05:33;;;;;;;2.10;0.40;;;;;;;26.02;60.25;99774.78;180655;1264;44156;-88
2023/08/04 15:09:36;;;;;;;5.70;0.50;;;;;;;26.02;60.45;99776.95;180503;1264;43894;-88
2023/08/04 15:13:41;;;;;;;2.00;0.40;;;;;;;26.05;60.59;99778.68;180695;1264;43804;-89
2023/08/04 15:17:45;;;;;;;;;;;;;;;26.12;59.87;99782.98;180524;1264;59110;-90
2023/08/04 15:21:49;;;;;;;0.50;0.30;;;;;;;26.16;60.18;99785.98;180575;1264;43606;-90
2023/08/04 15:25:54;;;;;;;0.70;0.40;;;;;;;26.12;59.48;99781.95;180416;1264;43848;-90
2023/08/04 15:29:58;;;;;;;0.60;0.40;;;;;;;26.13;59.96;99781.00;180580;1264;43791;-90
2023/08/04 15:34:01;;;;;;;1.20;0.30;;;;;;;26.11;59.22;99782.12;180496;1264;43959;-88
2023/08/04 15:38:05;;;;;;;0.50;0.10;;;;;;;26.16;58.55;99776.93;180555;1264;60584;-88
2023/08/04 15:42:09;;;;;;;0.60;0.40;;;;;;;26.14;57.94;99770.77;180409;1264;46810;-87
2023/08/04 15:46:13;;;;;;;0.20;0.20;;;;;;;26.12;58.05;99767.19;180737;1262;43821;-87
2023/08/04 15:50:17;;;;;;;1.90;0.70;;;;;;;26.09;57.89;99768.95;180790;1263;44063;-87
2023/08/04 15:54:23;;;;;;;1.40;0.30;;;;;;;25.99;58.74;99761.16;180906;1263;43854;-86
2023/08/04 15:58:30;;;;;;;1.30;0.20;;;;;;;25.85;59.83;99758.47;180737;1263;59486;-87
2023/08/04 16:02:35;;;;;;;0.90;0.30;;;;;;;25.83;59.52;99760.27;180838;1263;43993;-87
2023/08/04 16:06:38;;;;;;;2.10;0.50;;;;;;;25.82;59.46;99767.63;180602;1263;43738;-87
2023/08/04 16:10:43;;;;;;;1.40;0.50;;;;;;;25.78;59.35;99770.75;180859;1262;43490;-87
2023/08/04 16:14:51;;;;;;;0.40;0.40;;;;;;;25.75;59.43;99778.16;180806;1264;44202;-87
2023/08/04 16:18:55;;;;;;;1.20;0.40;;;;;;;25.71;59.95;99785.09;180654;1262;58713;-87
2023/08/04 16:23:02;;;;;;;1.30;0.40;;;;;;;25.65;59.96;99785.29;180722;1264;44242;-88
2023/08/04 16:27:07;;;;;;;;;;;;;;;25.55;60.62;99782.13;180886;1262;44019;-87
2023/08/04 16:31:10;;;;;;;0.50;0.30;;;;;;;25.47;60.57;99775.33;180774;1264;43648;-87
2023/08/04 16:35:23;;;;;;;0.50;0.30;;;;;;;25.43;60.59;99785.73;180857;1262;43879;-87
2023/08/04 16:39:29;;;;;;;0.70;0.70;;;;;;;25.40;61.45;99789.11;180767;1263;58312;-87
2023/08/04 16:43:32;;;;;;;1.10;0.20;;;;;;;25.40;61.52;99788.73;180678;1262;43871;-87
2023/08/04 16:47:36;;;;;;;0.60;0.30;;;;;;;25.42;62.08;99793.55;180821;1262;43678;-87
2023/08/04 16:51:39;;;;;;;2.80;0.40;;;;;;;25.42;62.20;99793.67;180745;1264;43796;-87
2023/08/04 16:55:43;;;;;;;6.40;0.70;;;;;;;25.40;62.50;99797.06;180676;1262;43989;-87
2023/08/04 16:59:47;;;;;;;0.50;0.30;;;;;;;25.38;62.72;99788.05;180729;1262;58560;-87
2023/08/04 17:03:51;;;;;;;1.10;0.50;;;;;;;25.33;63.87;99785.25;180680;1262;44161;-87
2023/08/04 17:07:55;;;;;;;19.20;2.50;;;;;;;25.29;64.25;99788.47;180841;1262;44221;-85
2023/08/04 17:11:58;;;;;;;3.00;0.90;;;;;;;25.23;64.29;99782.90;180796;1262;43884;-85
2023/08/04 17:16:13;;;;;;;2.90;0.80;;;;;;;25.19;64.34;99780.71;180537;1264;236911;-85
2023/08/04 17:20:17;;;;;;;0.90;0.50;;;;;;;25.13;64.78;99778.30;180624;1262;58219;-85
2023/08/04 17:24:21;;;;;;;0.80;0.70;;;;;;;25.08;65.53;99773.48;180804;1262;44019;-85
2023/08/04 17:28:24;;;;;;;2.20;0.60;;;;;;;25.01;65.72;99778.83;180748;1262;44058;-85
2023/08/04 17:32:30;;;;;;;2.20;0.60;;;;;;;24.90;66.27;99777.73;180782;1262;44283;-85
2023/08/04 17:36:35;;;;;;;1.90;1.00;;;;;;;24.80;66.75;99785.10;180752;1264;44174;-85
2023/08/04 17:40:38;;;;;;;2.60;0.90;;;;;;;24.75;66.65;99786.20;180914;1262;60097;-85
2023/08/04 17:44:46;;;;;;;7.40;1.40;;;;;;;24.69;66.83;99791.25;180691;1262;43929;-84
2023/08/04 17:48:50;;;;;;;5.80;1.20;;;;;;;24.64;67.26;99802.53;180780;1263;44059;-85
2023/08/04 17:52:55;;;;;;;0.60;0.50;;;;;;;24.55;67.49;99807.64;180805;1262;43809;-85
2023/08/04 17:57:05;;;;;;;1.10;1.00;;;;;;;24.49;67.76;99809.42;180705;1264;44074;-85
2023/08/04 18:01:10;;;;;;;1.60;1.20;;;;;;;24.45;68.08;99810.07;180675;1263;59978;-85
2023/08/04 18:05:21;;;;;;;2.80;1.20;;;;;;;24.38;68.46;99812.41;180747;1262;43891;-85
2023/08/04 18:09:31;;;;;;;2.50;0.80;;;;;;;24.32;69.00;99817.05;180710;1263;43703;-84
2023/08/04 18:13:35;;;;;;;2.30;1.60;;;;;;;24.24;69.29;99823.04;180878;1262;43937;-84
2023/08/04 18:17:38;;;;;;;1.50;1.20;;;;;;;24.16;69.44;99818.45;181031;1262;43740;-86
2023/08/04 18:21:53;;;;;;;2.60;1.50;;;;;;;24.10;69.79;99819.27;180762;1263;59574;-84
2023/08/04 18:26:00;;;;;;;2.90;1.60;;;;;;;24.04;70.71;99827.28;180906;1262;43992;-85
2023/08/04 18:30:08;;;;;;;3.10;1.50;;;;;;;23.92;71.97;99839.12;180806;1262;44225;-86
2023/08/04 18:34:11;;;;;;;2.30;1.80;;;;;;;23.79;72.01;99849.34;180794;1262;44118;-85
2023/08/04 18:38:16;;;;;;;16.30;3.30;;;;;;;23.66;72.74;99859.73;180799;1262;44031;-84
2023/08/04 18:42:19;;;;;;;9.90;2.70;;;;;;;23.54;74.34;99876.23;180604;1263;58254;-85
2023/08/04 18:46:23;;;;;;;5.30;2.10;;;;;;;23.43;74.73;99882.14;180861;1262;44333;-85
2023/08/04 18:50:26;;;;;;;9.90;2.10;;;;;;;23.34;74.61;99881.50;180748;1262;43809;-86
2023/08/04 18:54:29;;;;;;;2.70;1.50;;;;;;;23.27;75.19;99885.13;180928;1263;43910;-85
2023/08/04 18:58:32;;;;;;;2.40;0.90;;;;;;;23.18;75.24;99886.38;180788;1262;44044;-84
2023/08/04 19:02:36;;;;;;;2.10;1.30;;;;;;;23.08;75.34;99894.88;180834;1262;59266;-88
2023/08/04 19:06:40;;;;;;;3.80;1.90;;;;;;;22.95;75.92;99895.73;180807;1263;44058;-87
2023/08/04 19:10:43;;;;;;;4.30;1.60;;;;;;;22.79;77.18;99896.48;180940;1262;43883;-83
2023/08/04 19:14:46;;;;;;;1.80;1.60;;;;;;;22.68;77.76;99898.64;180777;1262;43794;-82
2023/08/04 19:18:50;;;;;;;3.80;1.30;;;;;;;22.61;79.06;99900.08;180830;1263;43732;-83
2023/08/04 19:22:57;;;;;;;2.70;1.70;;;;;;;22.56;80.26;99899.21;180694;1262;58488;-83
2023/08/04 19:27:00;;;;;;;6.90;3.30;;;;;;;22.52;81.06;99898.52;180615;1263;44822;-83
2023/08/04 19:31:03;;;;;;;4.60;2.10;;;;;;;22.46;80.32;99898.19;180731;1263;44559;-84
2023/08/04 19:35:07;;;;;;;2.30;2.00;;;;;;;22.44;79.96;99899.12;180512;1263;43821;-82
2023/08/04 19:39:12;;;;;;;5.30;2.40;;;;;;;22.31;81.91;99900.35;180582;1262;43869;-82
2023/08/04 19:43:18;;;;;;;3.90;2.20;;;;;;;22.17;82.92;99908.06;180560;1263;59507;-82